sensor_id;sensor_type;location;lat;lon;timestamp;temperature;humidity
21752;DHT22;11038;50.940;20.564;2022-10-31T00:01:14;12.90;99.90
21752;DHT22;11038;50.940;20.564;2022-10-31T00:02:49;12.80;99.90
21752;DHT22;11038;50.940;20.564;2022-10-31T00:04:22;12.80;99.90
21752;DHT22;11038;50.940;20.564;2022-10-31T00:05:54;12.80;99.90
21752;DHT22;11038;50.940;20.564;2022-10-31T00:07:26;12.80;99.90
21752;DHT22;11038;50.940;20.564;2022-10-31T00:09:00;12.70;99.90
21752;DHT22;11038;50.940;20.564;2022-10-31T00:10:40;12.80;99.90
21752;DHT22;11038;50.940;20.564;2022-10-31T00:12:13;12.70;99.90
21752;DHT22;11038;50.940;20.564;2022-10-31T00:13:46;12.70;99.90
21752;DHT22;11038;50.940;20.564;2022-10-31T00:15:18;12.70;99.90
21752;DHT22;11038;50.940;20.564;2022-10-31T00:16:51;12.70;99.90
21752;DHT22;11038;50.940;20.564;2022-10-31T00:18:23;12.60;99.90
21752;DHT22;11038;50.940;20.564;2022-10-31T00:19:55;12.70;99.90
21752;DHT22;11038;50.940;20.564;2022-10-31T00:21:30;12.60;99.90
21752;DHT22;11038;50.940;20.564;2022-10-31T00:23:04;12.60;99.90
21752;DHT22;11038;50.940;20.564;2022-10-31T00:24:37;12.50;99.90
21752;DHT22;11038;50.940;20.564;2022-10-31T00:26:09;12.50;99.90
21752;DHT22;11038;50.940;20.564;2022-10-31T00:27:42;12.50;99.90
21752;DHT22;11038;50.940;20.564;2022-10-31T00:29:14;12.50;99.90
21752;DHT22;11038;50.940;20.564;2022-10-31T00:30:46;12.50;99.90
21752;DHT22;11038;50.940;20.564;2022-10-31T00:32:19;12.50;99.90
21752;DHT22;11038;50.940;20.564;2022-10-31T00:33:51;12.50;99.90
21752;DHT22;11038;50.940;20.564;2022-10-31T00:35:23;12.50;99.90
21752;DHT22;11038;50.940;20.564;2022-10-31T00:36:55;12.50;99.90
21752;DHT22;11038;50.940;20.564;2022-10-31T00:38:28;12.50;99.90
21752;DHT22;11038;50.940;20.564;2022-10-31T00:40:01;12.50;99.90
21752;DHT22;11038;50.940;20.564;2022-10-31T00:41:33;12.50;99.90
21752;DHT22;11038;50.940;20.564;2022-10-31T00:43:05;12.50;99.90
21752;DHT22;11038;50.940;20.564;2022-10-31T00:44:38;12.50;99.90
21752;DHT22;11038;50.940;20.564;2022-10-31T00:46:11;12.50;99.90
21752;DHT22;11038;50.940;20.564;2022-10-31T00:47:46;12.50;99.90
21752;DHT22;11038;50.940;20.564;2022-10-31T00:49:18;12.50;99.90
21752;DHT22;11038;50.940;20.564;2022-10-31T00:50:50;12.50;99.90
21752;DHT22;11038;50.940;20.564;2022-10-31T00:52:23;12.50;99.90
21752;DHT22;11038;50.940;20.564;2022-10-31T00:53:55;12.50;99.90
21752;DHT22;11038;50.940;20.564;2022-10-31T00:55:27;12.50;99.90
21752;DHT22;11038;50.940;20.564;2022-10-31T00:57:00;12.50;99.90
21752;DHT22;11038;50.940;20.564;2022-10-31T00:58:32;12.50;99.90
21752;DHT22;11038;50.940;20.564;2022-10-31T01:00:05;12.50;99.90
21752;DHT22;11038;50.940;20.564;2022-10-31T01:01:38;12.50;99.90
21752;DHT22;11038;50.940;20.564;2022-10-31T01:03:10;12.50;99.90
21752;DHT22;11038;50.940;20.564;2022-10-31T01:04:43;12.50;99.90
21752;DHT22;11038;50.940;20.564;2022-10-31T01:06:16;12.50;99.90
21752;DHT22;11038;50.940;20.564;2022-10-31T01:07:48;12.50;99.90
21752;DHT22;11038;50.940;20.564;2022-10-31T01:09:20;12.50;99.90
21752;DHT22;11038;50.940;20.564;2022-10-31T01:11:05;12.40;99.90
21752;DHT22;11038;50.940;20.564;2022-10-31T01:12:54;12.40;99.90
21752;DHT22;11038;50.940;20.564;2022-10-31T01:14:27;12.40;99.90
21752;DHT22;11038;50.940;20.564;2022-10-31T01:16:00;12.40;99.90
21752;DHT22;11038;50.940;20.564;2022-10-31T01:17:33;12.40;99.90
21752;DHT22;11038;50.940;20.564;2022-10-31T01:19:07;12.40;99.90
21752;DHT22;11038;50.940;20.564;2022-10-31T01:20:40;12.50;99.90
21752;DHT22;11038;50.940;20.564;2022-10-31T01:22:21;12.50;99.90
21752;DHT22;11038;50.940;20.564;2022-10-31T01:23:54;12.50;99.90
21752;DHT22;11038;50.940;20.564;2022-10-31T01:25:27;12.50;99.90
21752;DHT22;11038;50.940;20.564;2022-10-31T01:26:59;12.50;99.90
21752;DHT22;11038;50.940;20.564;2022-10-31T01:28:33;12.50;99.90
21752;DHT22;11038;50.940;20.564;2022-10-31T01:30:07;12.50;99.90
21752;DHT22;11038;50.940;20.564;2022-10-31T01:31:40;12.40;99.90
21752;DHT22;11038;50.940;20.564;2022-10-31T01:33:21;12.40;99.90
21752;DHT22;11038;50.940;20.564;2022-10-31T01:34:54;12.50;99.90
21752;DHT22;11038;50.940;20.564;2022-10-31T01:36:32;12.50;99.90
21752;DHT22;11038;50.940;20.564;2022-10-31T01:38:06;12.40;99.90
21752;DHT22;11038;50.940;20.564;2022-10-31T01:39:39;12.40;99.90
21752;DHT22;11038;50.940;20.564;2022-10-31T01:41:14;12.50;99.90
21752;DHT22;11038;50.940;20.564;2022-10-31T01:42:47;12.50;99.90
21752;DHT22;11038;50.940;20.564;2022-10-31T01:45:53;12.50;99.90
21752;DHT22;11038;50.940;20.564;2022-10-31T01:47:33;12.50;99.90
21752;DHT22;11038;50.940;20.564;2022-10-31T01:49:24;12.50;99.90
21752;DHT22;11038;50.940;20.564;2022-10-31T01:50:59;12.50;99.90
21752;DHT22;11038;50.940;20.564;2022-10-31T01:52:42;12.50;99.90
21752;DHT22;11038;50.940;20.564;2022-10-31T01:54:21;12.50;99.90
21752;DHT22;11038;50.940;20.564;2022-10-31T01:55:55;12.50;99.90
21752;DHT22;11038;50.940;20.564;2022-10-31T01:57:29;12.50;99.90
21752;DHT22;11038;50.940;20.564;2022-10-31T01:59:08;12.50;99.90
21752;DHT22;11038;50.940;20.564;2022-10-31T02:00:46;12.50;99.90
21752;DHT22;11038;50.940;20.564;2022-10-31T02:02:23;12.50;99.90
21752;DHT22;11038;50.940;20.564;2022-10-31T02:03:57;12.50;99.90
21752;DHT22;11038;50.940;20.564;2022-10-31T02:05:32;12.50;99.90
21752;DHT22;11038;50.940;20.564;2022-10-31T02:07:10;12.50;99.90
21752;DHT22;11038;50.940;20.564;2022-10-31T02:08:50;12.50;99.90
21752;DHT22;11038;50.940;20.564;2022-10-31T02:10:23;12.50;99.90
21752;DHT22;11038;50.940;20.564;2022-10-31T02:11:58;12.50;99.90
21752;DHT22;11038;50.940;20.564;2022-10-31T02:13:31;12.50;99.90
21752;DHT22;11038;50.940;20.564;2022-10-31T02:15:06;12.40;99.90
21752;DHT22;11038;50.940;20.564;2022-10-31T02:16:40;12.50;99.90
21752;DHT22;11038;50.940;20.564;2022-10-31T02:18:12;12.40;99.90
21752;DHT22;11038;50.940;20.564;2022-10-31T02:20:18;12.40;99.90
21752;DHT22;11038;50.940;20.564;2022-10-31T02:28:34;12.30;99.90
21752;DHT22;11038;50.940;20.564;2022-10-31T02:30:19;12.40;99.90
21752;DHT22;11038;50.940;20.564;2022-10-31T02:33:50;12.40;99.90
21752;DHT22;11038;50.940;20.564;2022-10-31T02:37:34;12.30;99.90
21752;DHT22;11038;50.940;20.564;2022-10-31T02:41:27;12.20;99.90
21752;DHT22;11038;50.940;20.564;2022-10-31T02:45:35;12.10;99.90
21752;DHT22;11038;50.940;20.564;2022-10-31T02:47:17;12.10;99.90
21752;DHT22;11038;50.940;20.564;2022-10-31T02:48:57;12.00;99.90
21752;DHT22;11038;50.940;20.564;2022-10-31T02:50:39;11.90;99.90
21752;DHT22;11038;50.940;20.564;2022-10-31T02:52:28;11.90;99.90
21752;DHT22;11038;50.940;20.564;2022-10-31T02:54:05;11.80;99.90
21752;DHT22;11038;50.940;20.564;2022-10-31T02:56:08;11.80;99.90
21752;DHT22;11038;50.940;20.564;2022-10-31T02:57:44;11.70;99.90
21752;DHT22;11038;50.940;20.564;2022-10-31T02:59:17;11.60;99.90
21752;DHT22;11038;50.940;20.564;2022-10-31T03:03:12;11.60;99.90
21752;DHT22;11038;50.940;20.564;2022-10-31T03:11:03;11.40;99.90
21752;DHT22;11038;50.940;20.564;2022-10-31T03:12:47;11.30;99.90
21752;DHT22;11038;50.940;20.564;2022-10-31T03:14:43;11.30;99.90
21752;DHT22;11038;50.940;20.564;2022-10-31T03:16:45;11.20;99.90
21752;DHT22;11038;50.940;20.564;2022-10-31T03:18:29;11.20;99.90
21752;DHT22;11038;50.940;20.564;2022-10-31T03:20:09;11.20;99.90
21752;DHT22;11038;50.940;20.564;2022-10-31T03:21:52;11.20;99.90
21752;DHT22;11038;50.940;20.564;2022-10-31T03:23:30;11.20;99.90
21752;DHT22;11038;50.940;20.564;2022-10-31T03:25:06;11.20;99.90
21752;DHT22;11038;50.940;20.564;2022-10-31T03:26:52;11.20;99.90
21752;DHT22;11038;50.940;20.564;2022-10-31T03:28:30;11.30;99.90
21752;DHT22;11038;50.940;20.564;2022-10-31T03:30:10;11.30;99.90
21752;DHT22;11038;50.940;20.564;2022-10-31T03:31:52;11.30;99.90
21752;DHT22;11038;50.940;20.564;2022-10-31T03:33:32;11.30;99.90
21752;DHT22;11038;50.940;20.564;2022-10-31T03:35:10;11.30;99.90
21752;DHT22;11038;50.940;20.564;2022-10-31T03:36:54;11.20;99.90
21752;DHT22;11038;50.940;20.564;2022-10-31T03:38:29;11.20;99.90
21752;DHT22;11038;50.940;20.564;2022-10-31T03:40:06;11.20;99.90
21752;DHT22;11038;50.940;20.564;2022-10-31T03:41:49;11.20;99.90
21752;DHT22;11038;50.940;20.564;2022-10-31T03:43:32;11.20;99.90
21752;DHT22;11038;50.940;20.564;2022-10-31T03:45:19;11.20;99.90
21752;DHT22;11038;50.940;20.564;2022-10-31T03:46:58;11.20;99.90
21752;DHT22;11038;50.940;20.564;2022-10-31T03:48:32;11.20;99.90
21752;DHT22;11038;50.940;20.564;2022-10-31T03:50:06;11.20;99.90
21752;DHT22;11038;50.940;20.564;2022-10-31T03:51:53;11.20;99.90
21752;DHT22;11038;50.940;20.564;2022-10-31T03:53:53;11.20;99.90
21752;DHT22;11038;50.940;20.564;2022-10-31T03:55:42;11.20;99.90
21752;DHT22;11038;50.940;20.564;2022-10-31T04:00:03;11.20;99.90
21752;DHT22;11038;50.940;20.564;2022-10-31T04:01:41;11.10;99.90
21752;DHT22;11038;50.940;20.564;2022-10-31T04:03:28;11.10;99.90
21752;DHT22;11038;50.940;20.564;2022-10-31T04:05:08;11.10;99.90
21752;DHT22;11038;50.940;20.564;2022-10-31T04:06:44;11.10;99.90
21752;DHT22;11038;50.940;20.564;2022-10-31T04:08:23;11.10;99.90
21752;DHT22;11038;50.940;20.564;2022-10-31T04:10:01;11.10;99.90
21752;DHT22;11038;50.940;20.564;2022-10-31T04:11:41;11.10;99.90
21752;DHT22;11038;50.940;20.564;2022-10-31T04:13:23;11.10;99.90
21752;DHT22;11038;50.940;20.564;2022-10-31T04:15:02;11.00;99.90
21752;DHT22;11038;50.940;20.564;2022-10-31T04:16:40;11.00;99.90
21752;DHT22;11038;50.940;20.564;2022-10-31T04:18:15;11.00;99.90
21752;DHT22;11038;50.940;20.564;2022-10-31T04:19:48;11.00;99.90
21752;DHT22;11038;50.940;20.564;2022-10-31T04:21:27;10.90;99.90
21752;DHT22;11038;50.940;20.564;2022-10-31T04:23:01;10.90;99.90
21752;DHT22;11038;50.940;20.564;2022-10-31T04:24:37;10.90;99.90
21752;DHT22;11038;50.940;20.564;2022-10-31T04:26:12;10.90;99.90
21752;DHT22;11038;50.940;20.564;2022-10-31T04:27:44;10.90;99.90
21752;DHT22;11038;50.940;20.564;2022-10-31T04:29:17;10.90;99.90
21752;DHT22;11038;50.940;20.564;2022-10-31T04:30:50;10.90;99.90
21752;DHT22;11038;50.940;20.564;2022-10-31T04:32:22;10.90;99.90
21752;DHT22;11038;50.940;20.564;2022-10-31T04:33:55;10.80;99.90
21752;DHT22;11038;50.940;20.564;2022-10-31T04:35:27;10.90;99.90
21752;DHT22;11038;50.940;20.564;2022-10-31T04:36:59;10.80;99.90
21752;DHT22;11038;50.940;20.564;2022-10-31T04:38:31;10.80;99.90
21752;DHT22;11038;50.940;20.564;2022-10-31T04:40:04;10.80;99.90
21752;DHT22;11038;50.940;20.564;2022-10-31T04:41:37;10.80;99.90
21752;DHT22;11038;50.940;20.564;2022-10-31T04:43:09;10.80;99.90
21752;DHT22;11038;50.940;20.564;2022-10-31T04:44:42;10.80;99.90
21752;DHT22;11038;50.940;20.564;2022-10-31T04:46:15;10.70;99.90
21752;DHT22;11038;50.940;20.564;2022-10-31T04:47:47;10.70;99.90
21752;DHT22;11038;50.940;20.564;2022-10-31T04:49:20;10.70;99.90
21752;DHT22;11038;50.940;20.564;2022-10-31T04:50:52;10.70;99.90
21752;DHT22;11038;50.940;20.564;2022-10-31T04:52:24;10.70;99.90
21752;DHT22;11038;50.940;20.564;2022-10-31T04:53:57;10.70;99.90
21752;DHT22;11038;50.940;20.564;2022-10-31T04:55:29;10.70;99.90
21752;DHT22;11038;50.940;20.564;2022-10-31T04:57:01;10.70;99.90
21752;DHT22;11038;50.940;20.564;2022-10-31T04:58:34;10.70;99.90
21752;DHT22;11038;50.940;20.564;2022-10-31T05:00:07;10.70;99.90
21752;DHT22;11038;50.940;20.564;2022-10-31T05:01:40;10.70;99.90
21752;DHT22;11038;50.940;20.564;2022-10-31T05:03:12;10.70;99.90
21752;DHT22;11038;50.940;20.564;2022-10-31T05:04:45;10.70;99.90
21752;DHT22;11038;50.940;20.564;2022-10-31T05:06:17;10.70;99.90
21752;DHT22;11038;50.940;20.564;2022-10-31T05:07:50;10.70;99.90
21752;DHT22;11038;50.940;20.564;2022-10-31T05:09:23;10.70;99.90
21752;DHT22;11038;50.940;20.564;2022-10-31T05:11:00;10.70;99.90
21752;DHT22;11038;50.940;20.564;2022-10-31T05:12:35;10.70;99.90
21752;DHT22;11038;50.940;20.564;2022-10-31T05:14:08;10.60;99.90
21752;DHT22;11038;50.940;20.564;2022-10-31T05:15:40;10.60;99.90
21752;DHT22;11038;50.940;20.564;2022-10-31T05:17:13;10.60;99.90
21752;DHT22;11038;50.940;20.564;2022-10-31T05:18:48;10.60;99.90
21752;DHT22;11038;50.940;20.564;2022-10-31T05:20:23;10.70;99.90
21752;DHT22;11038;50.940;20.564;2022-10-31T05:21:57;10.70;99.90
21752;DHT22;11038;50.940;20.564;2022-10-31T05:23:29;10.60;99.90
21752;DHT22;11038;50.940;20.564;2022-10-31T05:25:15;10.60;99.90
21752;DHT22;11038;50.940;20.564;2022-10-31T05:26:49;10.60;99.90
21752;DHT22;11038;50.940;20.564;2022-10-31T05:28:22;10.60;99.90
21752;DHT22;11038;50.940;20.564;2022-10-31T05:29:54;10.60;99.90
21752;DHT22;11038;50.940;20.564;2022-10-31T05:31:26;10.60;99.90
21752;DHT22;11038;50.940;20.564;2022-10-31T05:32:59;10.60;99.90
21752;DHT22;11038;50.940;20.564;2022-10-31T05:34:32;10.60;99.90
21752;DHT22;11038;50.940;20.564;2022-10-31T05:36:04;10.60;99.90
21752;DHT22;11038;50.940;20.564;2022-10-31T05:37:37;10.60;99.90
21752;DHT22;11038;50.940;20.564;2022-10-31T05:39:10;10.60;99.90
21752;DHT22;11038;50.940;20.564;2022-10-31T05:40:42;10.60;99.90
21752;DHT22;11038;50.940;20.564;2022-10-31T05:42:15;10.60;99.90
21752;DHT22;11038;50.940;20.564;2022-10-31T05:43:47;10.60;99.90
21752;DHT22;11038;50.940;20.564;2022-10-31T05:45:20;10.60;99.90
21752;DHT22;11038;50.940;20.564;2022-10-31T05:46:53;10.60;99.90
21752;DHT22;11038;50.940;20.564;2022-10-31T05:48:26;10.60;99.90
21752;DHT22;11038;50.940;20.564;2022-10-31T05:49:58;10.70;99.90
21752;DHT22;11038;50.940;20.564;2022-10-31T05:51:30;10.70;99.90
21752;DHT22;11038;50.940;20.564;2022-10-31T05:53:04;10.70;99.90
21752;DHT22;11038;50.940;20.564;2022-10-31T05:54:37;10.70;99.90
21752;DHT22;11038;50.940;20.564;2022-10-31T05:56:10;10.70;99.90
21752;DHT22;11038;50.940;20.564;2022-10-31T05:57:43;10.80;99.90
21752;DHT22;11038;50.940;20.564;2022-10-31T05:59:15;10.80;99.90
21752;DHT22;11038;50.940;20.564;2022-10-31T06:00:47;10.80;99.90
21752;DHT22;11038;50.940;20.564;2022-10-31T06:02:20;10.80;99.90
21752;DHT22;11038;50.940;20.564;2022-10-31T06:03:53;10.80;99.90
21752;DHT22;11038;50.940;20.564;2022-10-31T06:05:26;10.90;99.90
21752;DHT22;11038;50.940;20.564;2022-10-31T06:06:58;10.90;99.90
21752;DHT22;11038;50.940;20.564;2022-10-31T06:08:31;10.90;99.90
21752;DHT22;11038;50.940;20.564;2022-10-31T06:10:06;10.90;99.90
21752;DHT22;11038;50.940;20.564;2022-10-31T06:11:39;10.90;99.90
21752;DHT22;11038;50.940;20.564;2022-10-31T06:13:12;10.90;99.90
21752;DHT22;11038;50.940;20.564;2022-10-31T06:14:44;10.90;99.90
21752;DHT22;11038;50.940;20.564;2022-10-31T06:16:16;10.90;99.90
21752;DHT22;11038;50.940;20.564;2022-10-31T06:18:06;11.00;99.90
21752;DHT22;11038;50.940;20.564;2022-10-31T06:19:38;11.00;99.90
21752;DHT22;11038;50.940;20.564;2022-10-31T06:21:10;11.10;99.90
21752;DHT22;11038;50.940;20.564;2022-10-31T06:22:48;11.20;99.90
21752;DHT22;11038;50.940;20.564;2022-10-31T06:24:21;11.30;99.90
21752;DHT22;11038;50.940;20.564;2022-10-31T06:25:53;11.40;99.90
21752;DHT22;11038;50.940;20.564;2022-10-31T06:27:27;11.60;99.90
21752;DHT22;11038;50.940;20.564;2022-10-31T06:29:00;11.80;99.90
21752;DHT22;11038;50.940;20.564;2022-10-31T06:30:35;12.10;99.90
21752;DHT22;11038;50.940;20.564;2022-10-31T06:32:10;12.40;99.90
21752;DHT22;11038;50.940;20.564;2022-10-31T06:33:43;12.70;99.90
21752;DHT22;11038;50.940;20.564;2022-10-31T06:35:16;13.00;99.90
21752;DHT22;11038;50.940;20.564;2022-10-31T06:36:48;13.20;99.90
21752;DHT22;11038;50.940;20.564;2022-10-31T06:38:21;13.60;99.90
21752;DHT22;11038;50.940;20.564;2022-10-31T06:39:53;13.90;99.90
21752;DHT22;11038;50.940;20.564;2022-10-31T06:41:26;14.20;99.90
21752;DHT22;11038;50.940;20.564;2022-10-31T06:43:01;14.50;99.90
21752;DHT22;11038;50.940;20.564;2022-10-31T06:44:34;14.90;99.90
21752;DHT22;11038;50.940;20.564;2022-10-31T06:46:06;15.10;99.90
21752;DHT22;11038;50.940;20.564;2022-10-31T06:47:38;15.40;99.90
21752;DHT22;11038;50.940;20.564;2022-10-31T06:49:31;15.50;99.90
21752;DHT22;11038;50.940;20.564;2022-10-31T06:51:04;15.70;99.90
21752;DHT22;11038;50.940;20.564;2022-10-31T06:52:36;15.90;99.90
21752;DHT22;11038;50.940;20.564;2022-10-31T06:54:09;16.00;99.90
21752;DHT22;11038;50.940;20.564;2022-10-31T06:55:41;16.20;99.90
21752;DHT22;11038;50.940;20.564;2022-10-31T06:57:17;16.30;99.90
21752;DHT22;11038;50.940;20.564;2022-10-31T06:58:49;16.40;99.90
21752;DHT22;11038;50.940;20.564;2022-10-31T07:00:22;16.40;99.90
21752;DHT22;11038;50.940;20.564;2022-10-31T07:01:55;16.20;99.90
21752;DHT22;11038;50.940;20.564;2022-10-31T07:03:29;16.10;99.90
21752;DHT22;11038;50.940;20.564;2022-10-31T07:05:02;16.00;99.90
21752;DHT22;11038;50.940;20.564;2022-10-31T07:06:34;16.20;99.90
21752;DHT22;11038;50.940;20.564;2022-10-31T07:08:10;16.20;99.90
21752;DHT22;11038;50.940;20.564;2022-10-31T07:09:43;16.30;99.90
21752;DHT22;11038;50.940;20.564;2022-10-31T07:11:16;16.40;99.90
21752;DHT22;11038;50.940;20.564;2022-10-31T07:12:48;16.50;99.90
21752;DHT22;11038;50.940;20.564;2022-10-31T07:14:26;16.50;99.90
21752;DHT22;11038;50.940;20.564;2022-10-31T07:16:08;16.70;99.90
21752;DHT22;11038;50.940;20.564;2022-10-31T07:17:44;16.60;99.90
21752;DHT22;11038;50.940;20.564;2022-10-31T07:19:16;16.50;99.90
21752;DHT22;11038;50.940;20.564;2022-10-31T07:20:49;16.60;99.90
21752;DHT22;11038;50.940;20.564;2022-10-31T07:22:21;16.60;99.90
21752;DHT22;11038;50.940;20.564;2022-10-31T07:23:54;16.60;99.90
21752;DHT22;11038;50.940;20.564;2022-10-31T07:25:27;16.70;99.90
21752;DHT22;11038;50.940;20.564;2022-10-31T07:26:59;16.90;99.90
21752;DHT22;11038;50.940;20.564;2022-10-31T07:28:36;16.90;99.90
21752;DHT22;11038;50.940;20.564;2022-10-31T07:30:11;16.80;99.90
21752;DHT22;11038;50.940;20.564;2022-10-31T07:31:46;16.80;99.90
21752;DHT22;11038;50.940;20.564;2022-10-31T07:33:19;16.70;99.90
21752;DHT22;11038;50.940;20.564;2022-10-31T07:34:52;16.60;99.90
21752;DHT22;11038;50.940;20.564;2022-10-31T07:36:24;16.70;99.90
21752;DHT22;11038;50.940;20.564;2022-10-31T07:37:57;16.80;99.90
21752;DHT22;11038;50.940;20.564;2022-10-31T07:39:38;16.50;99.90
21752;DHT22;11038;50.940;20.564;2022-10-31T07:41:10;16.30;99.90
21752;DHT22;11038;50.940;20.564;2022-10-31T07:42:45;16.50;99.90
21752;DHT22;11038;50.940;20.564;2022-10-31T07:44:19;16.50;99.90
21752;DHT22;11038;50.940;20.564;2022-10-31T07:45:53;16.60;99.90
21752;DHT22;11038;50.940;20.564;2022-10-31T07:47:25;16.60;99.90
21752;DHT22;11038;50.940;20.564;2022-10-31T07:48:58;16.60;99.90
21752;DHT22;11038;50.940;20.564;2022-10-31T07:50:31;16.60;99.90
21752;DHT22;11038;50.940;20.564;2022-10-31T07:52:08;16.70;99.90
21752;DHT22;11038;50.940;20.564;2022-10-31T07:53:40;16.70;99.90
21752;DHT22;11038;50.940;20.564;2022-10-31T07:55:13;16.70;99.90
21752;DHT22;11038;50.940;20.564;2022-10-31T07:56:46;16.70;99.90
21752;DHT22;11038;50.940;20.564;2022-10-31T07:58:20;16.60;99.90
21752;DHT22;11038;50.940;20.564;2022-10-31T07:59:53;16.50;99.90
21752;DHT22;11038;50.940;20.564;2022-10-31T08:01:26;16.60;99.90
21752;DHT22;11038;50.940;20.564;2022-10-31T08:03:04;16.40;99.90
21752;DHT22;11038;50.940;20.564;2022-10-31T08:04:39;16.30;99.90
21752;DHT22;11038;50.940;20.564;2022-10-31T08:06:13;16.10;99.90
21752;DHT22;11038;50.940;20.564;2022-10-31T08:07:46;16.20;99.90
21752;DHT22;11038;50.940;20.564;2022-10-31T08:09:19;15.80;99.90
21752;DHT22;11038;50.940;20.564;2022-10-31T08:10:52;15.80;99.90
21752;DHT22;11038;50.940;20.564;2022-10-31T08:12:24;15.80;99.90
21752;DHT22;11038;50.940;20.564;2022-10-31T08:13:56;15.60;99.90
21752;DHT22;11038;50.940;20.564;2022-10-31T08:15:29;15.50;99.90
21752;DHT22;11038;50.940;20.564;2022-10-31T08:17:02;15.70;99.90
21752;DHT22;11038;50.940;20.564;2022-10-31T08:18:35;15.90;99.90
21752;DHT22;11038;50.940;20.564;2022-10-31T08:20:10;16.20;99.90
21752;DHT22;11038;50.940;20.564;2022-10-31T08:21:42;16.30;99.90
21752;DHT22;11038;50.940;20.564;2022-10-31T08:23:15;16.50;99.90
21752;DHT22;11038;50.940;20.564;2022-10-31T08:24:48;17.00;99.90
21752;DHT22;11038;50.940;20.564;2022-10-31T08:26:20;17.40;99.90
21752;DHT22;11038;50.940;20.564;2022-10-31T08:27:54;18.00;99.90
21752;DHT22;11038;50.940;20.564;2022-10-31T08:29:28;18.40;99.90
21752;DHT22;11038;50.940;20.564;2022-10-31T08:31:00;18.50;99.90
21752;DHT22;11038;50.940;20.564;2022-10-31T08:32:32;18.70;99.90
21752;DHT22;11038;50.940;20.564;2022-10-31T08:34:05;19.10;99.90
21752;DHT22;11038;50.940;20.564;2022-10-31T08:35:38;19.40;99.90
21752;DHT22;11038;50.940;20.564;2022-10-31T08:37:11;19.80;99.90
21752;DHT22;11038;50.940;20.564;2022-10-31T08:38:43;20.10;99.90
21752;DHT22;11038;50.940;20.564;2022-10-31T08:40:15;20.40;99.90
21752;DHT22;11038;50.940;20.564;2022-10-31T08:41:48;20.50;99.90
21752;DHT22;11038;50.940;20.564;2022-10-31T08:43:20;20.70;99.90
21752;DHT22;11038;50.940;20.564;2022-10-31T08:44:52;20.70;99.90
21752;DHT22;11038;50.940;20.564;2022-10-31T08:46:24;20.70;99.30
21752;DHT22;11038;50.940;20.564;2022-10-31T08:47:58;20.80;98.90
21752;DHT22;11038;50.940;20.564;2022-10-31T08:49:32;20.80;98.90
21752;DHT22;11038;50.940;20.564;2022-10-31T08:51:05;21.00;98.60
21752;DHT22;11038;50.940;20.564;2022-10-31T08:52:39;21.00;98.40
21752;DHT22;11038;50.940;20.564;2022-10-31T08:54:31;21.00;98.00
21752;DHT22;11038;50.940;20.564;2022-10-31T08:56:04;21.20;98.10
21752;DHT22;11038;50.940;20.564;2022-10-31T08:57:37;21.20;97.20
21752;DHT22;11038;50.940;20.564;2022-10-31T08:59:09;21.30;96.90
21752;DHT22;11038;50.940;20.564;2022-10-31T09:00:44;21.40;97.20
21752;DHT22;11038;50.940;20.564;2022-10-31T09:02:18;21.30;96.40
21752;DHT22;11038;50.940;20.564;2022-10-31T09:03:50;21.30;96.40
21752;DHT22;11038;50.940;20.564;2022-10-31T09:05:23;21.40;96.10
21752;DHT22;11038;50.940;20.564;2022-10-31T09:06:55;21.40;96.00
21752;DHT22;11038;50.940;20.564;2022-10-31T09:08:48;21.50;95.80
21752;DHT22;11038;50.940;20.564;2022-10-31T09:10:20;21.40;95.60
21752;DHT22;11038;50.940;20.564;2022-10-31T09:11:53;21.50;95.60
21752;DHT22;11038;50.940;20.564;2022-10-31T09:13:26;21.40;95.80
21752;DHT22;11038;50.940;20.564;2022-10-31T09:14:59;21.40;95.80
21752;DHT22;11038;50.940;20.564;2022-10-31T09:16:33;21.30;95.70
21752;DHT22;11038;50.940;20.564;2022-10-31T09:18:06;21.40;96.20
21752;DHT22;11038;50.940;20.564;2022-10-31T09:19:39;21.40;95.70
21752;DHT22;11038;50.940;20.564;2022-10-31T09:21:12;21.30;95.90
21752;DHT22;11038;50.940;20.564;2022-10-31T09:22:45;21.40;96.10
21752;DHT22;11038;50.940;20.564;2022-10-31T09:24:18;21.40;95.80
21752;DHT22;11038;50.940;20.564;2022-10-31T09:25:51;21.40;95.60
21752;DHT22;11038;50.940;20.564;2022-10-31T09:27:24;21.50;95.50
21752;DHT22;11038;50.940;20.564;2022-10-31T09:28:57;21.50;95.30
21752;DHT22;11038;50.940;20.564;2022-10-31T09:30:32;21.50;95.20
21752;DHT22;11038;50.940;20.564;2022-10-31T09:32:06;21.40;95.20
21752;DHT22;11038;50.940;20.564;2022-10-31T09:33:38;21.50;95.40
21752;DHT22;11038;50.940;20.564;2022-10-31T09:35:11;21.50;95.40
21752;DHT22;11038;50.940;20.564;2022-10-31T09:36:48;21.50;95.50
21752;DHT22;11038;50.940;20.564;2022-10-31T09:38:21;21.40;95.60
21752;DHT22;11038;50.940;20.564;2022-10-31T09:39:55;21.50;95.40
21752;DHT22;11038;50.940;20.564;2022-10-31T09:47:04;21.90;94.80
21752;DHT22;11038;50.940;20.564;2022-10-31T09:51:20;22.10;94.60
21752;DHT22;11038;50.940;20.564;2022-10-31T09:53:03;22.20;94.20
21752;DHT22;11038;50.940;20.564;2022-10-31T09:54:45;22.20;94.20
21752;DHT22;11038;50.940;20.564;2022-10-31T09:56:22;22.20;94.50
21752;DHT22;11038;50.940;20.564;2022-10-31T09:57:58;22.20;94.60
21752;DHT22;11038;50.940;20.564;2022-10-31T09:59:38;22.30;94.60
21752;DHT22;11038;50.940;20.564;2022-10-31T10:01:24;22.30;94.40
21752;DHT22;11038;50.940;20.564;2022-10-31T10:06:34;22.40;94.10
21752;DHT22;11038;50.940;20.564;2022-10-31T10:08:18;22.50;93.40
21752;DHT22;11038;50.940;20.564;2022-10-31T10:09:52;22.60;93.20
21752;DHT22;11038;50.940;20.564;2022-10-31T10:11:41;22.50;93.30
21752;DHT22;11038;50.940;20.564;2022-10-31T10:15:03;22.40;93.70
21752;DHT22;11038;50.940;20.564;2022-10-31T10:17:07;22.50;93.50
21752;DHT22;11038;50.940;20.564;2022-10-31T10:23:11;22.70;93.30
21752;DHT22;11038;50.940;20.564;2022-10-31T10:25:16;22.80;92.60
21752;DHT22;11038;50.940;20.564;2022-10-31T10:27:03;22.80;93.00
21752;DHT22;11038;50.940;20.564;2022-10-31T10:29:05;22.80;92.80
21752;DHT22;11038;50.940;20.564;2022-10-31T10:32:41;22.80;92.60
21752;DHT22;11038;50.940;20.564;2022-10-31T10:34:31;22.90;92.90
21752;DHT22;11038;50.940;20.564;2022-10-31T10:36:33;22.90;92.40
21752;DHT22;11038;50.940;20.564;2022-10-31T10:40:07;23.00;92.30
21752;DHT22;11038;50.940;20.564;2022-10-31T10:41:49;22.90;92.00
21752;DHT22;11038;50.940;20.564;2022-10-31T10:43:41;22.90;92.30
21752;DHT22;11038;50.940;20.564;2022-10-31T10:45:16;22.90;92.50